createdAt,value
2017-06-18T00:01:30.607Z,19.10
2017-06-18T00:03:59.686Z,19.10
2017-06-18T00:06:28.015Z,19.10
2017-06-18T00:08:56.291Z,19.00
2017-06-18T00:11:24.659Z,19.00
2017-06-18T00:13:52.940Z,19.00
2017-06-18T00:16:21.247Z,19.00
2017-06-18T00:18:49.520Z,19.00
2017-06-18T00:21:18.082Z,19.00
2017-06-18T00:23:46.454Z,19.00
2017-06-18T00:26:14.750Z,19.00
2017-06-18T00:28:43.155Z,19.10
2017-06-18T00:31:11.495Z,19.00
2017-06-18T00:33:40.591Z,19.00
2017-06-18T00:36:08.902Z,19.00
2017-06-18T00:38:37.273Z,19.00
2017-06-18T00:41:06.751Z,19.00
2017-06-18T00:43:35.133Z,18.90
2017-06-18T00:46:03.406Z,18.90
2017-06-18T00:48:31.700Z,18.90
2017-06-18T00:50:59.976Z,18.80
2017-06-18T00:53:29.188Z,18.80
2017-06-18T00:55:57.471Z,18.80
2017-06-18T00:58:25.915Z,18.70
2017-06-18T01:00:54.187Z,18.70
2017-06-18T01:03:22.464Z,18.50
2017-06-18T01:05:50.759Z,18.40
2017-06-18T01:08:19.039Z,18.40
2017-06-18T01:10:47.336Z,18.30
2017-06-18T01:13:15.620Z,18.20
2017-06-18T01:15:44.848Z,18.00
2017-06-18T01:18:13.235Z,18.00
2017-06-18T01:20:41.555Z,18.00
2017-06-18T01:23:09.831Z,18.00
2017-06-18T01:25:38.127Z,17.90
2017-06-18T01:28:06.411Z,17.80
2017-06-18T01:30:35.558Z,17.70
2017-06-18T01:33:03.847Z,17.70
2017-06-18T01:35:32.119Z,17.70
2017-06-18T01:38:00.636Z,17.60
2017-06-18T01:40:29.040Z,17.50
2017-06-18T01:42:57.383Z,17.50
2017-06-18T01:45:25.659Z,17.40
2017-06-18T01:47:54.328Z,17.40
2017-06-18T01:50:22.618Z,17.40
2017-06-18T01:52:51.755Z,17.30
2017-06-18T01:55:20.217Z,17.30
2017-06-18T01:57:48.492Z,17.20
2017-06-18T02:00:16.992Z,17.20
2017-06-18T02:02:46.131Z,17.20
2017-06-18T02:05:14.427Z,17.20
2017-06-18T02:07:43.464Z,17.20
2017-06-18T02:10:11.739Z,17.10
2017-06-18T02:12:40.203Z,17.10
2017-06-18T02:15:08.592Z,17.10
2017-06-18T02:17:37.656Z,17.00
2017-06-18T02:20:05.932Z,17.00
2017-06-18T02:22:35.003Z,17.00
2017-06-18T02:25:03.283Z,16.90
2017-06-18T02:27:32.427Z,16.90
2017-06-18T02:30:01.114Z,16.90
2017-06-18T02:32:29.421Z,16.80
2017-06-18T02:34:57.836Z,16.80
2017-06-18T02:37:26.119Z,16.80
2017-06-18T02:39:55.288Z,16.80
2017-06-18T02:42:23.661Z,16.70
2017-06-18T02:44:51.968Z,16.70
2017-06-18T02:47:20.597Z,16.70
2017-06-18T02:49:48.944Z,16.70
2017-06-18T02:52:17.231Z,16.70
2017-06-18T02:54:45.560Z,16.70
2017-06-18T02:57:13.839Z,16.60
2017-06-18T02:59:42.151Z,16.60
2017-06-18T03:02:10.468Z,16.60
2017-06-18T03:04:38.948Z,16.60
2017-06-18T03:07:08.020Z,16.50
2017-06-18T03:09:37.092Z,16.50
2017-06-18T03:12:05.435Z,16.50
2017-06-18T03:14:33.797Z,16.50
2017-06-18T03:17:02.091Z,16.50
2017-06-18T03:19:30.367Z,16.50
2017-06-18T03:21:58.664Z,16.50
2017-06-18T03:24:27.144Z,16.50
2017-06-18T03:26:55.451Z,16.50
2017-06-18T03:29:23.863Z,16.50
2017-06-18T03:31:52.295Z,16.50
2017-06-18T03:34:20.598Z,16.40
2017-06-18T03:36:48.919Z,16.40
2017-06-18T03:39:17.232Z,16.50
2017-06-18T03:41:45.546Z,16.50
2017-06-18T03:44:13.836Z,16.40
2017-06-18T03:46:42.127Z,16.40
2017-06-18T03:49:10.410Z,16.40
2017-06-18T03:51:38.764Z,16.50
2017-06-18T03:54:07.823Z,16.50
2017-06-18T03:56:36.233Z,16.40
2017-06-18T03:59:04.626Z,16.50
2017-06-18T04:01:32.906Z,16.50
2017-06-18T04:04:01.205Z,16.60
2017-06-18T04:06:29.491Z,16.60
2017-06-18T04:08:57.794Z,16.60
2017-06-18T04:11:26.142Z,16.60
2017-06-18T04:13:54.442Z,16.60
2017-06-18T04:16:22.727Z,16.60
2017-06-18T04:18:51.103Z,16.60
2017-06-18T04:21:19.404Z,16.70
2017-06-18T04:23:47.688Z,16.70
2017-06-18T04:26:16.764Z,16.70
2017-06-18T04:28:45.044Z,16.60
2017-06-18T04:31:13.354Z,16.70
2017-06-18T04:34:18.702Z,16.80
2017-06-18T04:36:47.002Z,16.80
2017-06-18T04:39:15.287Z,16.80
2017-06-18T04:41:43.605Z,16.80
2017-06-18T04:44:11.878Z,16.90
2017-06-18T04:46:40.176Z,16.90
2017-06-18T04:49:08.467Z,16.90
2017-06-18T04:51:36.758Z,16.90
2017-06-18T04:54:05.813Z,17.10
2017-06-18T04:56:34.139Z,17.10
2017-06-18T04:59:02.575Z,17.10
2017-06-18T05:01:31.004Z,17.10
2017-06-18T05:03:59.382Z,17.20
2017-06-18T05:06:27.835Z,17.30
2017-06-18T05:08:56.112Z,17.30
2017-06-18T05:11:25.205Z,17.40
2017-06-18T05:13:54.276Z,17.40
2017-06-18T05:16:22.558Z,17.40
2017-06-18T05:18:51.820Z,17.50
2017-06-18T05:21:20.919Z,17.60
2017-06-18T05:23:49.339Z,17.50
2017-06-18T05:26:17.638Z,17.60
2017-06-18T05:28:46.779Z,17.70
2017-06-18T05:31:15.151Z,17.70
2017-06-18T05:33:43.440Z,17.70
2017-06-18T05:36:11.835Z,17.80
2017-06-18T05:38:40.232Z,17.90
2017-06-18T05:41:09.194Z,17.90
2017-06-18T05:43:38.304Z,18.00
2017-06-18T05:46:06.619Z,18.00
2017-06-18T05:48:34.898Z,18.10
2017-06-18T05:51:03.283Z,18.10
2017-06-18T05:53:31.571Z,18.10
2017-06-18T05:56:00.646Z,18.20
2017-06-18T05:58:28.951Z,18.20
2017-06-18T06:00:57.250Z,18.30
2017-06-18T06:03:25.772Z,18.40
2017-06-18T06:05:54.055Z,18.50
2017-06-18T06:08:22.347Z,18.60
2017-06-18T06:10:51.182Z,18.60
2017-06-18T06:13:19.484Z,18.70
2017-06-18T06:15:47.775Z,18.70
2017-06-18T06:18:16.835Z,18.80
2017-06-18T06:20:45.887Z,18.90
2017-06-18T06:23:14.359Z,18.90
2017-06-18T06:25:42.679Z,19.00
2017-06-18T06:28:10.997Z,19.00
2017-06-18T06:30:39.567Z,19.10
2017-06-18T06:33:07.851Z,19.10
2017-06-18T06:35:36.915Z,19.20
2017-06-18T06:38:05.289Z,19.20
2017-06-18T06:40:33.663Z,19.30
2017-06-18T06:43:01.947Z,19.30
2017-06-18T06:45:30.422Z,19.40
2017-06-18T06:47:58.743Z,19.40
2017-06-18T06:50:27.864Z,19.60
2017-06-18T06:52:56.134Z,19.60
2017-06-18T06:55:24.644Z,19.70
2017-06-18T06:57:52.911Z,19.80
2017-06-18T07:00:21.968Z,19.90
2017-06-18T07:02:50.243Z,19.90
2017-06-18T07:05:18.535Z,19.90
2017-06-18T07:07:46.991Z,19.90
2017-06-18T07:10:16.327Z,20.00
2017-06-18T07:12:44.714Z,20.00
2017-06-18T07:15:13.193Z,20.10
2017-06-18T07:17:41.671Z,20.20
2017-06-18T07:20:10.036Z,20.30
2017-06-18T07:22:38.347Z,20.30
2017-06-18T07:25:07.841Z,20.40
2017-06-18T07:27:36.112Z,20.50
2017-06-18T07:30:04.493Z,20.60
2017-06-18T07:32:32.784Z,20.60
2017-06-18T07:35:01.502Z,20.70
2017-06-18T07:37:29.918Z,20.70
2017-06-18T07:39:58.207Z,21.00
2017-06-18T07:42:27.441Z,21.10
2017-06-18T07:44:56.495Z,21.40
2017-06-18T07:47:24.867Z,21.40
2017-06-18T07:49:53.152Z,21.80
2017-06-18T07:52:22.212Z,22.20
2017-06-18T07:54:50.489Z,22.20
2017-06-18T07:57:18.903Z,22.40
2017-06-18T07:59:47.204Z,22.50
2017-06-18T08:02:15.494Z,22.50
2017-06-18T08:04:43.944Z,22.60
2017-06-18T08:07:12.999Z,23.00
2017-06-18T08:09:41.368Z,23.00
2017-06-18T08:12:09.623Z,23.20
2017-06-18T08:14:37.938Z,23.30
2017-06-18T08:17:06.211Z,23.40
2017-06-18T08:19:34.654Z,23.40
2017-06-18T08:22:02.947Z,23.40
2017-06-18T08:24:31.246Z,23.50
2017-06-18T08:26:59.521Z,23.80
2017-06-18T08:29:28.571Z,23.80
2017-06-18T08:31:56.974Z,23.80
2017-06-18T08:34:26.023Z,24.00
2017-06-18T08:36:54.299Z,24.00
2017-06-18T08:39:22.607Z,24.20
2017-06-18T08:41:50.904Z,24.30
2017-06-18T08:44:19.312Z,24.30
2017-06-18T08:46:47.596Z,24.30
2017-06-18T08:49:16.071Z,24.30
2017-06-18T08:51:44.365Z,24.60
2017-06-18T08:54:12.671Z,24.50
2017-06-18T08:56:40.966Z,24.30
2017-06-18T08:59:09.243Z,24.20
2017-06-18T09:01:37.532Z,24.30
2017-06-18T09:04:06.615Z,23.90
2017-06-18T09:06:34.951Z,23.90
2017-06-18T09:09:03.236Z,23.80
2017-06-18T09:11:32.291Z,24.20
2017-06-18T09:14:00.567Z,24.20
2017-06-18T09:16:28.867Z,24.40
2017-06-18T09:18:57.170Z,24.40
2017-06-18T09:21:25.641Z,24.40
2017-06-18T09:23:54.105Z,24.80
2017-06-18T09:26:22.383Z,24.90
2017-06-18T09:28:50.679Z,25.30
2017-06-18T09:31:20.012Z,25.80
2017-06-18T09:33:50.381Z,26.30
2017-06-18T09:36:19.391Z,26.50
2017-06-18T09:38:47.704Z,26.80
2017-06-18T09:41:16.901Z,27.10
2017-06-18T09:43:45.214Z,27.10
2017-06-18T09:46:13.489Z,26.70
2017-06-18T09:48:41.791Z,26.50
2017-06-18T09:51:10.067Z,26.50
2017-06-18T09:53:38.362Z,26.60
2017-06-18T09:56:06.642Z,26.40
2017-06-18T09:58:35.702Z,25.80
2017-06-18T10:01:03.983Z,25.80
2017-06-18T10:03:33.026Z,25.60
2017-06-18T10:06:02.114Z,25.60
2017-06-18T10:08:30.395Z,25.50
2017-06-18T10:10:58.779Z,25.60
2017-06-18T10:13:27.145Z,25.70
2017-06-18T10:15:56.255Z,25.60
2017-06-18T10:18:24.515Z,25.60
2017-06-18T10:20:52.811Z,25.90
2017-06-18T10:23:26.750Z,26.20
2017-06-18T10:25:55.066Z,26.30
2017-06-18T10:28:23.368Z,26.40
2017-06-18T10:30:52.409Z,26.60
2017-06-18T10:33:21.683Z,26.90
2017-06-18T10:35:50.108Z,26.90
2017-06-18T10:38:18.415Z,26.90
2017-06-18T10:40:46.786Z,26.90
2017-06-18T10:43:15.061Z,26.80
2017-06-18T10:45:44.131Z,27.10
2017-06-18T10:48:12.663Z,27.10
2017-06-18T10:50:40.943Z,27.10
2017-06-18T10:53:09.369Z,27.20
2017-06-18T10:55:37.711Z,27.40
2017-06-18T10:58:06.318Z,27.50
2017-06-18T11:00:34.594Z,27.30
2017-06-18T11:03:02.875Z,27.20
2017-06-18T11:05:31.160Z,27.20
2017-06-18T11:07:59.506Z,27.10
2017-06-18T11:10:28.275Z,27.30
2017-06-18T11:12:56.637Z,27.30
2017-06-18T11:15:24.973Z,27.50
2017-06-18T11:17:53.400Z,27.80
2017-06-18T11:20:22.493Z,27.90
2017-06-18T11:22:51.014Z,27.90
2017-06-18T11:25:19.687Z,27.60
2017-06-18T11:27:48.051Z,27.40
2017-06-18T11:30:16.339Z,27.10
2017-06-18T11:32:44.702Z,27.20
2017-06-18T11:35:13.001Z,27.20
2017-06-18T11:37:41.275Z,27.10
2017-06-18T11:40:09.572Z,27.10
2017-06-18T11:42:38.011Z,27.10
2017-06-18T11:45:06.446Z,26.90
2017-06-18T11:47:35.033Z,26.80
2017-06-18T11:50:03.307Z,26.50
2017-06-18T11:52:31.589Z,26.50
2017-06-18T11:54:59.943Z,26.60
2017-06-18T11:57:28.539Z,27.00
2017-06-18T11:59:56.828Z,27.10
2017-06-18T12:02:25.183Z,27.50
2017-06-18T12:04:53.455Z,27.80
2017-06-18T12:07:21.971Z,28.10
2017-06-18T12:09:50.253Z,27.90
2017-06-18T12:12:19.320Z,27.40
2017-06-18T12:14:47.655Z,27.40
2017-06-18T12:17:16.573Z,27.30
2017-06-18T12:19:44.832Z,27.30
2017-06-18T12:22:13.208Z,27.30
2017-06-18T12:24:42.260Z,27.50
2017-06-18T12:27:10.638Z,27.50
2017-06-18T12:29:38.945Z,27.90
2017-06-18T12:32:07.257Z,27.90
2017-06-18T12:34:35.575Z,28.30
2017-06-18T12:37:03.852Z,28.20
2017-06-18T12:39:32.263Z,28.20
2017-06-18T12:42:00.630Z,27.90
2017-06-18T12:44:28.990Z,27.80
2017-06-18T12:46:57.479Z,28.00
2017-06-18T12:49:26.084Z,28.20
2017-06-18T12:51:54.392Z,28.40
2017-06-18T12:54:22.703Z,28.20
2017-06-18T12:56:51.235Z,28.40
2017-06-18T12:59:19.553Z,28.30
2017-06-18T13:01:47.836Z,28.20
2017-06-18T13:04:16.954Z,28.20
2017-06-18T13:06:45.238Z,28.20
2017-06-18T13:09:13.515Z,28.50
2017-06-18T13:11:41.804Z,28.50
2017-06-18T13:14:11.231Z,28.00
2017-06-18T13:16:40.551Z,27.40
2017-06-18T13:19:08.991Z,27.40
2017-06-18T13:21:37.365Z,27.30
2017-06-18T13:24:05.727Z,27.20
2017-06-18T13:26:34.137Z,27.30
2017-06-18T13:29:02.409Z,27.50
2017-06-18T13:31:30.725Z,27.50
2017-06-18T13:33:58.975Z,27.30
2017-06-18T13:36:27.412Z,27.30
2017-06-18T13:38:55.722Z,27.50
2017-06-18T13:41:24.080Z,27.70
2017-06-18T13:43:52.331Z,27.90
2017-06-18T13:46:20.698Z,27.70
2017-06-18T13:48:48.967Z,27.70
2017-06-18T13:51:17.283Z,27.90
2017-06-18T13:53:45.563Z,28.10
2017-06-18T13:56:13.851Z,28.30
2017-06-18T13:58:42.140Z,28.60
2017-06-18T14:01:11.183Z,28.90
2017-06-18T14:03:39.571Z,28.90
2017-06-18T14:06:07.977Z,28.90
2017-06-18T14:08:36.258Z,28.90
2017-06-18T14:11:04.682Z,29.10
2017-06-18T14:13:33.054Z,29.10
2017-06-18T14:16:01.349Z,29.10
2017-06-18T14:18:29.703Z,28.80
2017-06-18T14:20:58.200Z,28.90
2017-06-18T14:23:26.602Z,28.90
2017-06-18T14:25:54.976Z,29.10
2017-06-18T14:28:23.271Z,29.20
2017-06-18T14:30:51.550Z,28.80
2017-06-18T14:33:19.827Z,28.80
2017-06-18T14:35:48.188Z,28.70
2017-06-18T14:38:16.528Z,28.60
2017-06-18T14:40:44.921Z,28.30
2017-06-18T14:43:14.560Z,28.20
2017-06-18T14:45:42.906Z,28.30
2017-06-18T14:48:11.177Z,28.40
2017-06-18T14:50:39.478Z,28.70
2017-06-18T14:53:07.758Z,29.10
2017-06-18T14:55:36.056Z,29.60
2017-06-18T14:58:05.098Z,30.30
2017-06-18T15:00:33.491Z,30.30
2017-06-18T15:03:02.523Z,30.20
2017-06-18T15:05:30.799Z,30.20
2017-06-18T15:07:59.099Z,29.90
2017-06-18T15:10:27.370Z,30.00
2017-06-18T15:12:55.708Z,30.10
2017-06-18T15:15:24.823Z,30.30
2017-06-18T15:17:53.285Z,30.40
2017-06-18T15:20:21.611Z,30.10
2017-06-18T15:22:49.927Z,29.90
2017-06-18T15:25:18.195Z,30.10
2017-06-18T15:27:47.355Z,30.60
2017-06-18T15:30:15.664Z,30.50
2017-06-18T15:32:43.956Z,30.60
2017-06-18T15:35:12.259Z,30.90
2017-06-18T15:37:40.583Z,31.20
2017-06-18T15:40:09.249Z,31.30
2017-06-18T15:42:37.833Z,31.20
2017-06-18T15:45:06.151Z,30.80
2017-06-18T15:47:34.427Z,30.30
2017-06-18T15:50:03.637Z,29.20
2017-06-18T15:52:31.927Z,29.10
2017-06-18T15:55:00.323Z,28.80
2017-06-18T15:57:28.723Z,28.70
2017-06-18T15:59:57.399Z,28.60
2017-06-18T16:02:26.448Z,29.30
2017-06-18T16:04:55.517Z,29.30
2017-06-18T16:07:23.901Z,29.30
2017-06-18T16:09:52.311Z,29.70
2017-06-18T16:12:20.720Z,30.00
2017-06-18T16:14:49.774Z,30.30
2017-06-18T16:17:18.098Z,30.30
2017-06-18T16:19:46.522Z,30.40
2017-06-18T16:22:15.028Z,30.40
2017-06-18T16:24:43.378Z,30.50
2017-06-18T16:27:11.667Z,30.60
2017-06-18T16:29:40.129Z,30.80
2017-06-18T16:32:08.418Z,30.90
2017-06-18T16:34:36.739Z,30.90
2017-06-18T16:37:05.064Z,30.90
2017-06-18T16:39:33.405Z,30.50
2017-06-18T16:42:01.827Z,30.10
2017-06-18T16:44:30.256Z,29.80
2017-06-18T16:46:58.542Z,29.60
2017-06-18T16:49:26.812Z,29.40
2017-06-18T16:51:55.105Z,29.30
2017-06-18T16:54:23.378Z,29.30
2017-06-18T16:56:51.778Z,29.40
2017-06-18T16:59:20.042Z,29.80
2017-06-18T17:01:49.108Z,30.00
2017-06-18T17:04:17.383Z,30.00
2017-06-18T17:06:46.435Z,30.30
2017-06-18T17:09:14.748Z,30.30
2017-06-18T17:11:43.066Z,29.90
2017-06-18T17:14:11.463Z,30.10
2017-06-18T17:16:39.727Z,30.30
2017-06-18T17:19:08.021Z,30.30
2017-06-18T17:21:41.860Z,30.30
2017-06-18T17:24:10.908Z,30.60
2017-06-18T17:26:39.181Z,30.60
2017-06-18T17:29:07.503Z,30.90
2017-06-18T17:31:35.799Z,31.00
2017-06-18T17:34:04.071Z,31.40
2017-06-18T17:36:32.382Z,31.20
2017-06-18T17:39:00.692Z,31.20
2017-06-18T17:41:29.875Z,31.20
2017-06-18T17:43:58.150Z,31.20
2017-06-18T17:46:27.214Z,31.20
2017-06-18T17:48:55.520Z,31.20
2017-06-18T17:51:23.939Z,31.20
2017-06-18T17:53:52.706Z,31.20
2017-06-18T17:56:20.981Z,31.00
2017-06-18T17:58:49.320Z,30.30
2017-06-18T18:01:17.588Z,30.10
2017-06-18T18:03:45.923Z,30.00
2017-06-18T18:06:14.195Z,30.10
2017-06-18T18:08:42.708Z,29.90
2017-06-18T18:11:11.143Z,29.20
2017-06-18T18:13:39.439Z,29.20
2017-06-18T18:16:08.478Z,29.50
2017-06-18T18:18:36.900Z,29.50
2017-06-18T18:21:05.179Z,29.70
2017-06-18T18:23:33.578Z,29.70
2017-06-18T18:26:01.867Z,29.60
2017-06-18T18:28:30.149Z,29.40
2017-06-18T18:30:58.448Z,29.00
2017-06-18T18:33:26.720Z,28.60
2017-06-18T18:35:55.135Z,28.40
2017-06-18T18:38:23.424Z,28.10
2017-06-18T18:40:51.706Z,27.90
2017-06-18T18:43:19.987Z,28.10
2017-06-18T18:45:48.278Z,28.20
2017-06-18T18:48:16.551Z,28.20
2017-06-18T18:50:44.915Z,28.00
2017-06-18T18:53:13.195Z,28.00
2017-06-18T18:55:41.482Z,27.70
2017-06-18T18:58:09.942Z,27.60
2017-06-18T19:00:39.952Z,27.00
2017-06-18T19:03:09.033Z,27.10
2017-06-18T19:05:37.531Z,27.10
2017-06-18T19:08:06.570Z,26.70
2017-06-18T19:10:34.866Z,26.60
2017-06-18T19:13:04.224Z,26.30
2017-06-18T19:15:32.497Z,26.20
2017-06-18T19:18:00.806Z,26.20
2017-06-18T19:20:29.091Z,25.80
2017-06-18T19:22:57.411Z,25.80
2017-06-18T19:25:26.503Z,25.50
2017-06-18T19:27:54.791Z,25.40
2017-06-18T19:30:23.181Z,25.40
2017-06-18T19:32:52.262Z,25.20
2017-06-18T19:35:20.599Z,25.10
2017-06-18T19:37:48.952Z,25.10
2017-06-18T19:40:17.229Z,24.90
2017-06-18T19:42:45.555Z,24.90
2017-06-18T19:45:13.833Z,24.80
2017-06-18T19:47:42.188Z,24.70
2017-06-18T19:50:10.519Z,24.60
2017-06-18T19:52:38.873Z,24.60
2017-06-18T19:55:07.423Z,24.50
2017-06-18T19:57:35.908Z,24.40
2017-06-18T20:00:04.216Z,24.40
2017-06-18T20:02:32.525Z,24.40
2017-06-18T20:05:00.834Z,24.30
2017-06-18T20:07:29.115Z,24.20
2017-06-18T20:09:57.444Z,24.20
2017-06-18T20:12:26.697Z,24.10
2017-06-18T20:14:54.983Z,24.10
2017-06-18T20:17:24.029Z,24.00
2017-06-18T20:19:53.166Z,24.00
2017-06-18T20:22:21.461Z,24.00
2017-06-18T20:24:49.775Z,23.90
2017-06-18T20:27:18.067Z,23.80
2017-06-18T20:29:46.355Z,23.80
2017-06-18T20:32:14.725Z,23.70
2017-06-18T20:34:43.002Z,23.60
2017-06-18T20:37:11.288Z,23.60
2017-06-18T20:39:39.563Z,23.50
2017-06-18T20:42:07.852Z,23.50
2017-06-18T20:44:36.940Z,23.30
2017-06-18T20:47:05.309Z,23.30
2017-06-18T20:49:33.651Z,23.30
2017-06-18T20:52:02.003Z,23.20
2017-06-18T20:54:30.346Z,23.10
2017-06-18T20:56:59.385Z,23.00
2017-06-18T20:59:27.727Z,22.90
2017-06-18T21:01:56.007Z,22.90
2017-06-18T21:04:24.370Z,22.90
2017-06-18T21:06:52.779Z,22.80
2017-06-18T21:09:21.093Z,22.80
2017-06-18T21:11:49.375Z,22.70
2017-06-18T21:14:17.899Z,22.70
2017-06-18T21:16:46.275Z,22.70
2017-06-18T21:19:14.624Z,22.60
2017-06-18T21:21:43.062Z,22.50
2017-06-18T21:24:11.340Z,22.50
2017-06-18T21:26:39.841Z,22.40
2017-06-18T21:29:08.123Z,22.30
2017-06-18T21:31:36.458Z,22.30
2017-06-18T21:34:04.856Z,22.30
2017-06-18T21:36:33.116Z,22.30
2017-06-18T21:39:02.212Z,22.20
2017-06-18T21:41:30.640Z,22.10
2017-06-18T21:43:58.912Z,22.10
2017-06-18T21:46:27.527Z,22.00
2017-06-18T21:48:55.826Z,22.00
2017-06-18T21:51:24.153Z,22.00
2017-06-18T21:53:52.619Z,21.90
2017-06-18T21:56:20.960Z,21.80
2017-06-18T21:58:49.280Z,21.70
2017-06-18T22:01:17.591Z,21.70
2017-06-18T22:03:45.875Z,21.70
2017-06-18T22:06:14.299Z,21.70
2017-06-18T22:08:42.558Z,21.70
2017-06-18T22:11:11.636Z,21.60
2017-06-18T22:13:40.760Z,21.50
2017-06-18T22:16:09.775Z,21.50
2017-06-18T22:18:38.855Z,21.40
2017-06-18T22:21:07.159Z,21.40
2017-06-18T22:23:35.527Z,21.40
2017-06-18T22:26:03.799Z,21.40
2017-06-18T22:28:32.131Z,21.30
2017-06-18T22:31:01.280Z,21.30
2017-06-18T22:33:29.599Z,21.30
2017-06-18T22:35:59.889Z,21.30
2017-06-18T22:38:28.206Z,21.30
2017-06-18T22:40:56.631Z,21.20
2017-06-18T22:43:24.911Z,21.20
2017-06-18T22:45:53.242Z,21.20
2017-06-18T22:48:23.032Z,21.10
2017-06-18T22:50:51.316Z,21.10
2017-06-18T22:53:19.612Z,21.10
2017-06-18T22:55:48.244Z,21.00
2017-06-18T22:58:16.579Z,21.00
2017-06-18T23:00:45.071Z,21.00
2017-06-18T23:03:13.762Z,20.90
2017-06-18T23:05:42.048Z,20.90
2017-06-18T23:08:10.371Z,20.90
2017-06-18T23:10:39.646Z,20.80
2017-06-18T23:13:08.309Z,20.80
2017-06-18T23:15:36.602Z,20.80
2017-06-18T23:18:04.883Z,20.70
2017-06-18T23:20:33.212Z,20.70
2017-06-18T23:23:01.556Z,20.70
2017-06-18T23:25:30.647Z,20.60
2017-06-18T23:27:59.049Z,20.60
2017-06-18T23:30:27.419Z,20.60
2017-06-18T23:32:55.744Z,20.50
2017-06-18T23:35:25.456Z,20.50
2017-06-18T23:37:53.755Z,20.50
2017-06-18T23:40:22.039Z,20.40
2017-06-18T23:42:51.141Z,20.40
2017-06-18T23:45:19.436Z,20.40
2017-06-18T23:47:47.731Z,20.40
2017-06-18T23:50:16.118Z,20.30
2017-06-18T23:52:44.443Z,20.30
2017-06-18T23:55:12.741Z,20.30
2017-06-18T23:57:41.063Z,20.20
